createdAt,value
2019-05-26T00:00:09.803Z,6.30
2019-05-26T00:02:39.623Z,5.63
2019-05-26T00:05:09.340Z,6.33
2019-05-26T00:07:38.862Z,6.10
2019-05-26T00:10:08.886Z,6.67
2019-05-26T00:12:38.311Z,5.90
2019-05-26T00:15:08.336Z,4.80
2019-05-26T00:17:37.787Z,6.20
2019-05-26T00:20:08.296Z,5.70
2019-05-26T00:22:37.756Z,5.53
2019-05-26T00:25:07.860Z,5.50
2019-05-26T00:27:37.461Z,5.97
2019-05-26T00:30:10.385Z,5.43
2019-05-26T00:32:39.904Z,6.37
2019-05-26T00:35:10.015Z,6.17
2019-05-26T00:37:49.221Z,7.03
2019-05-26T00:40:10.908Z,6.03
2019-05-26T00:42:40.359Z,5.93
2019-05-26T00:45:10.280Z,6.97
2019-05-26T00:47:39.828Z,6.03
2019-05-26T00:50:09.841Z,6.67
2019-05-26T00:52:39.349Z,6.90
2019-05-26T00:55:09.468Z,5.90
2019-05-26T00:57:38.996Z,6.17
2019-05-26T01:00:09.908Z,5.70
2019-05-26T01:02:39.568Z,6.20
2019-05-26T01:05:09.770Z,6.07
2019-05-26T01:07:39.213Z,8.20
2019-05-26T01:10:09.010Z,7.07
2019-05-26T01:12:39.190Z,7.07
2019-05-26T01:15:09.421Z,7.23
2019-05-26T01:17:38.877Z,6.37
2019-05-26T01:20:08.881Z,7.13
2019-05-26T01:22:38.336Z,6.93
2019-05-26T01:25:09.053Z,6.53
2019-05-26T01:27:38.513Z,7.20
2019-05-26T01:30:08.616Z,5.90
2019-05-26T01:32:38.140Z,8.47
2019-05-26T01:35:08.424Z,8.30
2019-05-26T01:37:39.719Z,7.70
2019-05-26T01:40:10.707Z,7.33
2019-05-26T01:42:40.187Z,6.87
2019-05-26T01:45:09.877Z,7.27
2019-05-26T01:47:39.349Z,5.93
2019-05-26T01:50:09.151Z,6.60
2019-05-26T01:52:38.619Z,6.23
2019-05-26T01:55:08.803Z,6.23
2019-05-26T01:57:38.343Z,5.93
2019-05-26T02:00:08.142Z,5.73
2019-05-26T02:02:37.991Z,6.23
2019-05-26T02:05:07.622Z,5.33
2019-05-26T02:07:37.093Z,5.67
2019-05-26T02:10:07.280Z,6.87
2019-05-26T02:12:36.755Z,7.10
2019-05-26T02:15:07.907Z,5.90
2019-05-26T02:17:37.380Z,5.90
2019-05-26T02:20:07.676Z,6.30
2019-05-26T02:22:37.158Z,8.27
2019-05-26T02:25:09.123Z,7.27
2019-05-26T02:27:38.588Z,7.17
2019-05-26T02:30:10.155Z,7.80
2019-05-26T02:32:39.705Z,7.80
2019-05-26T02:35:09.784Z,7.50
2019-05-26T02:37:39.339Z,8.00
2019-05-26T02:40:10.225Z,8.03
2019-05-26T02:42:39.978Z,8.50
2019-05-26T02:45:12.565Z,8.37
2019-05-26T02:47:42.154Z,8.70
2019-05-26T02:50:12.337Z,9.40
2019-05-26T02:52:41.884Z,8.93
2019-05-26T02:55:11.546Z,8.37
2019-05-26T02:57:41.018Z,8.37
2019-05-26T03:00:12.094Z,8.57
2019-05-26T03:02:41.639Z,7.63
2019-05-26T03:05:12.006Z,9.03
2019-05-26T03:07:43.483Z,8.50
2019-05-26T03:10:14.758Z,9.37
2019-05-26T03:12:46.022Z,8.80
2019-05-26T03:15:18.104Z,8.73
2019-05-26T03:17:49.878Z,8.73
2019-05-26T03:20:19.557Z,8.87
2019-05-26T03:22:55.025Z,8.77
2019-05-26T03:25:24.461Z,9.30
2019-05-26T03:27:53.929Z,10.27
2019-05-26T03:30:23.366Z,9.43
2019-05-26T03:32:52.843Z,10.23
2019-05-26T03:35:22.300Z,9.97
2019-05-26T03:37:51.756Z,10.43
2019-05-26T03:40:21.206Z,9.70
2019-05-26T03:42:50.689Z,8.43
2019-05-26T03:45:38.236Z,9.63
2019-05-26T03:48:07.712Z,10.33
2019-05-26T03:50:37.167Z,9.00
2019-05-26T03:53:06.791Z,8.87
2019-05-26T03:55:36.198Z,10.60
2019-05-26T03:58:05.676Z,9.70
2019-05-26T04:00:35.109Z,9.73
2019-05-26T04:03:04.587Z,9.97
2019-05-26T04:05:34.021Z,9.73
2019-05-26T04:08:05.354Z,9.40
2019-05-26T04:10:34.561Z,9.83
2019-05-26T04:13:04.033Z,9.23
2019-05-26T04:15:33.486Z,9.80
2019-05-26T04:18:02.981Z,10.07
2019-05-26T04:20:32.405Z,9.70
2019-05-26T04:23:01.888Z,9.23
2019-05-26T04:25:31.350Z,10.10
2019-05-26T04:28:00.824Z,8.63
2019-05-26T04:30:30.257Z,9.27
2019-05-26T04:32:59.728Z,8.93
2019-05-26T04:35:29.169Z,9.00
2019-05-26T04:37:58.642Z,9.07
2019-05-26T04:40:28.383Z,8.77
2019-05-26T04:42:57.956Z,9.23
2019-05-26T04:45:27.419Z,8.07
2019-05-26T04:47:56.894Z,8.80
2019-05-26T04:50:26.338Z,8.77
2019-05-26T04:53:06.118Z,8.73
2019-05-26T04:55:26.932Z,8.70
2019-05-26T04:57:56.389Z,8.67
2019-05-26T05:00:25.830Z,8.10
2019-05-26T05:02:55.291Z,8.57
2019-05-26T05:05:24.737Z,7.93
2019-05-26T05:07:54.213Z,7.77
2019-05-26T05:10:23.825Z,7.83
2019-05-26T05:12:53.294Z,7.53
2019-05-26T05:15:22.735Z,8.07
2019-05-26T05:17:52.199Z,7.50
2019-05-26T05:20:21.645Z,8.30
2019-05-26T05:22:51.118Z,7.90
2019-05-26T05:25:20.565Z,7.40
2019-05-26T05:27:50.043Z,8.20
2019-05-26T05:30:20.125Z,8.23
2019-05-26T05:32:49.619Z,8.03
2019-05-26T05:35:19.280Z,8.17
2019-05-26T05:37:48.762Z,8.37
2019-05-26T05:40:18.454Z,8.60
2019-05-26T05:42:47.956Z,9.40
2019-05-26T05:45:18.333Z,8.70
2019-05-26T05:47:47.837Z,9.10
2019-05-26T05:50:19.173Z,8.40
2019-05-26T05:52:48.622Z,8.47
2019-05-26T05:55:18.371Z,9.50
2019-05-26T05:57:47.801Z,10.30
2019-05-26T06:00:17.402Z,10.10
2019-05-26T06:02:46.863Z,10.23
2019-05-26T06:05:16.408Z,9.47
2019-05-26T06:07:45.860Z,10.27
2019-05-26T06:10:15.663Z,10.77
2019-05-26T06:12:45.113Z,10.70
2019-05-26T06:15:16.351Z,10.97
2019-05-26T06:17:45.798Z,11.47
2019-05-26T06:20:16.639Z,12.37
2019-05-26T06:22:46.065Z,12.60
2019-05-26T06:25:16.583Z,12.47
2019-05-26T06:27:46.102Z,11.97
2019-05-26T06:30:16.981Z,13.87
2019-05-26T06:32:46.427Z,14.73
2019-05-26T06:35:16.029Z,13.20
2019-05-26T06:37:45.514Z,16.03
2019-05-26T06:40:15.034Z,15.13
2019-05-26T06:42:44.484Z,15.20
2019-05-26T06:45:14.407Z,18.37
2019-05-26T06:47:43.858Z,17.33
2019-05-26T06:50:14.061Z,16.83
2019-05-26T06:52:43.505Z,17.57
2019-05-26T06:55:13.208Z,16.03
2019-05-26T06:57:42.653Z,15.43
2019-05-26T07:00:12.562Z,15.57
2019-05-26T07:02:42.007Z,15.63
2019-05-26T07:05:11.555Z,14.50
2019-05-26T07:07:40.997Z,15.27
2019-05-26T07:10:10.596Z,14.77
2019-05-26T07:12:40.041Z,14.07
2019-05-26T07:15:11.353Z,15.90
2019-05-26T07:17:40.796Z,15.07
2019-05-26T07:20:10.500Z,14.23
2019-05-26T07:22:39.950Z,13.40
2019-05-26T07:25:09.566Z,14.30
2019-05-26T07:27:39.018Z,13.70
2019-05-26T07:30:10.425Z,15.33
2019-05-26T07:32:39.881Z,14.43
2019-05-26T07:35:09.589Z,14.07
2019-05-26T07:37:39.037Z,14.27
2019-05-26T07:40:08.770Z,15.13
2019-05-26T07:42:38.290Z,14.60
2019-05-26T07:45:08.299Z,14.20
2019-05-26T07:47:37.746Z,15.03
2019-05-26T07:50:08.559Z,15.97
2019-05-26T07:52:38.017Z,15.27
2019-05-26T07:55:07.559Z,14.53
2019-05-26T07:57:37.182Z,15.93
2019-05-26T08:00:07.870Z,15.87
2019-05-26T08:02:37.314Z,16.57
2019-05-26T08:05:07.669Z,15.68
2019-05-26T08:07:37.076Z,15.63
2019-05-26T08:10:07.391Z,17.23
2019-05-26T08:12:36.834Z,17.27
2019-05-26T08:15:06.846Z,16.70
2019-05-26T08:17:36.293Z,17.15
2019-05-26T08:20:09.879Z,16.77
2019-05-26T08:22:39.330Z,16.17
2019-05-26T08:25:09.045Z,16.48
2019-05-26T08:27:38.499Z,16.55
2019-05-26T08:30:10.317Z,16.80
2019-05-26T08:32:39.768Z,15.88
2019-05-26T08:35:10.277Z,17.25
2019-05-26T08:37:39.724Z,16.17
2019-05-26T08:40:18.321Z,15.20
2019-05-26T08:42:51.906Z,16.60
2019-05-26T08:45:22.779Z,16.17
2019-05-26T08:47:52.775Z,15.18
2019-05-26T08:50:22.959Z,15.55
2019-05-26T08:52:52.533Z,16.15
2019-05-26T08:55:22.077Z,14.83
2019-05-26T08:57:51.522Z,15.20
2019-05-26T09:00:21.534Z,14.78
2019-05-26T09:02:50.981Z,14.05
2019-05-26T09:05:21.094Z,14.68
2019-05-26T09:07:50.619Z,14.83
2019-05-26T09:10:20.321Z,13.65
2019-05-26T09:13:00.306Z,13.55
2019-05-26T09:15:21.937Z,13.90
2019-05-26T09:17:51.393Z,14.38
2019-05-26T09:20:22.411Z,13.65
2019-05-26T09:22:51.852Z,13.68
2019-05-26T09:25:21.330Z,13.90
2019-05-26T09:27:50.786Z,14.05
2019-05-26T09:30:20.624Z,15.35
2019-05-26T09:32:50.089Z,14.18
2019-05-26T09:35:19.557Z,14.03
2019-05-26T09:37:49.013Z,14.33
2019-05-26T09:40:19.526Z,14.05
2019-05-26T09:42:49.053Z,14.00
2019-05-26T09:45:18.921Z,13.85
2019-05-26T09:47:48.506Z,14.95
2019-05-26T09:50:18.111Z,13.00
2019-05-26T09:52:47.665Z,12.03
2019-05-26T09:55:17.446Z,12.40
2019-05-26T09:57:46.986Z,12.15
2019-05-26T10:00:17.293Z,10.95
2019-05-26T10:02:47.213Z,11.60
2019-05-26T10:05:16.921Z,12.03
2019-05-26T10:07:46.889Z,11.97
2019-05-26T10:10:17.429Z,11.53
2019-05-26T10:12:47.074Z,12.85
2019-05-26T10:15:16.760Z,12.60
2019-05-26T10:17:46.236Z,10.53
2019-05-26T10:20:16.089Z,11.73
2019-05-26T10:22:45.552Z,11.28
2019-05-26T10:25:15.844Z,11.68
2019-05-26T10:27:45.308Z,10.53
2019-05-26T10:30:15.703Z,10.72
2019-05-26T10:32:45.391Z,10.35
2019-05-26T10:35:15.577Z,10.38
2019-05-26T10:37:45.049Z,10.25
2019-05-26T10:40:15.546Z,8.95
2019-05-26T10:42:45.438Z,9.58
2019-05-26T10:45:15.081Z,8.68
2019-05-26T10:47:44.563Z,8.45
2019-05-26T10:50:16.049Z,8.83
2019-05-26T10:52:45.509Z,8.68
2019-05-26T10:55:15.098Z,8.30
2019-05-26T10:57:44.581Z,7.97
2019-05-26T11:00:15.468Z,8.48
2019-05-26T11:02:45.005Z,8.85
2019-05-26T11:05:14.594Z,6.83
2019-05-26T11:07:44.063Z,7.70
2019-05-26T11:10:14.240Z,7.17
2019-05-26T11:12:43.718Z,7.37
2019-05-26T11:15:13.797Z,6.53
2019-05-26T11:17:43.330Z,6.78
2019-05-26T11:20:13.512Z,6.60
2019-05-26T11:22:42.977Z,7.42
2019-05-26T11:25:12.586Z,5.95
2019-05-26T11:27:42.045Z,6.28
2019-05-26T11:30:13.025Z,6.80
2019-05-26T11:32:42.484Z,7.60
2019-05-26T11:35:12.674Z,7.50
2019-05-26T11:37:42.138Z,7.30
2019-05-26T11:40:11.718Z,7.60
2019-05-26T11:42:44.651Z,6.95
2019-05-26T11:45:12.494Z,6.28
2019-05-26T11:47:41.966Z,6.15
2019-05-26T11:50:12.042Z,5.83
2019-05-26T11:52:41.509Z,5.95
2019-05-26T11:55:12.194Z,6.15
2019-05-26T11:57:41.669Z,5.58
2019-05-26T12:00:14.341Z,5.35
2019-05-26T12:02:45.246Z,6.37
2019-05-26T12:05:17.514Z,5.45
2019-05-26T12:07:46.117Z,4.92
2019-05-26T12:10:16.107Z,5.17
2019-05-26T12:12:45.586Z,4.42
2019-05-26T12:15:16.364Z,4.95
2019-05-26T12:17:45.905Z,4.40
2019-05-26T12:20:15.615Z,4.45
2019-05-26T12:22:45.081Z,4.10
2019-05-26T12:25:14.866Z,3.42
2019-05-26T12:27:44.344Z,4.45
2019-05-26T12:30:16.568Z,4.55
2019-05-26T12:32:47.129Z,4.28
2019-05-26T12:35:16.810Z,4.20
2019-05-26T12:37:48.241Z,3.58
2019-05-26T12:40:17.981Z,4.00
2019-05-26T12:42:47.524Z,4.15
2019-05-26T12:45:18.005Z,3.65
2019-05-26T12:47:47.539Z,3.75
2019-05-26T12:50:17.049Z,4.10
2019-05-26T12:52:46.517Z,3.80
2019-05-26T12:55:16.207Z,3.83
2019-05-26T12:57:46.783Z,3.72
2019-05-26T13:00:16.666Z,3.87
2019-05-26T13:02:47.136Z,4.15
2019-05-26T13:05:17.504Z,3.30
2019-05-26T13:07:47.079Z,3.55
2019-05-26T13:10:16.925Z,3.72
2019-05-26T13:12:46.397Z,2.70
2019-05-26T13:15:16.284Z,3.22
2019-05-26T13:17:45.741Z,3.22
2019-05-26T13:20:15.634Z,3.10
2019-05-26T13:22:46.066Z,3.22
2019-05-26T13:25:16.444Z,3.95
2019-05-26T13:27:45.919Z,3.62
2019-05-26T13:30:24.069Z,3.45
2019-05-26T13:32:53.542Z,3.30
2019-05-26T13:35:23.064Z,3.87
2019-05-26T13:37:52.657Z,3.70
2019-05-26T13:40:22.245Z,3.42
2019-05-26T13:42:52.186Z,3.27
2019-05-26T13:45:23.327Z,3.10
2019-05-26T13:47:52.936Z,4.30
2019-05-26T13:50:22.626Z,3.08
2019-05-26T13:52:52.095Z,4.17
2019-05-26T13:55:21.774Z,4.00
2019-05-26T13:57:51.239Z,3.62
2019-05-26T14:00:21.325Z,4.00
2019-05-26T14:02:50.934Z,3.72
2019-05-26T14:05:21.414Z,4.03
2019-05-26T14:07:50.941Z,3.52
2019-05-26T14:10:34.529Z,4.67
2019-05-26T14:13:05.029Z,4.53
2019-05-26T14:15:38.795Z,4.33
2019-05-26T14:18:06.939Z,3.67
2019-05-26T14:20:38.116Z,4.00
2019-05-26T14:23:08.532Z,3.80
2019-05-26T14:25:38.207Z,3.85
2019-05-26T14:28:08.228Z,4.00
2019-05-26T14:30:37.821Z,4.12
2019-05-26T14:33:07.281Z,4.25
2019-05-26T14:35:36.724Z,4.30
2019-05-26T14:38:06.260Z,3.87
2019-05-26T14:40:35.999Z,4.40
2019-05-26T14:43:05.965Z,3.70
2019-05-26T14:45:35.926Z,4.10
2019-05-26T14:48:06.314Z,4.10
2019-05-26T14:50:35.774Z,3.33
2019-05-26T14:53:05.218Z,3.17
2019-05-26T14:55:34.748Z,3.60
2019-05-26T14:58:14.965Z,3.17
2019-05-26T15:00:35.526Z,3.02
2019-05-26T15:03:05.033Z,3.47
2019-05-26T15:05:34.502Z,3.30
2019-05-26T15:08:03.942Z,2.90
2019-05-26T15:10:33.404Z,3.00
2019-05-26T15:13:02.858Z,3.15
2019-05-26T15:15:35.005Z,2.72
2019-05-26T15:18:03.377Z,2.98
2019-05-26T15:20:32.850Z,2.52
2019-05-26T15:23:02.298Z,3.33
2019-05-26T15:25:31.771Z,4.17
2019-05-26T15:28:01.211Z,3.02
2019-05-26T15:30:30.740Z,3.37
2019-05-26T15:33:00.185Z,2.87
2019-05-26T15:35:29.649Z,3.22
2019-05-26T15:37:59.098Z,3.15
2019-05-26T15:40:28.566Z,2.65
2019-05-26T15:42:58.004Z,3.65
2019-05-26T15:45:27.478Z,3.55
2019-05-26T15:47:57.185Z,3.12
2019-05-26T15:50:26.645Z,3.10
2019-05-26T15:52:56.081Z,3.62
2019-05-26T15:55:25.607Z,2.95
2019-05-26T15:57:55.158Z,3.90
2019-05-26T16:00:26.868Z,3.52
2019-05-26T16:02:56.309Z,3.60
2019-05-26T16:05:25.789Z,4.42
2019-05-26T16:07:55.209Z,4.65
2019-05-26T16:10:24.672Z,5.17
2019-05-26T16:12:54.127Z,4.25
2019-05-26T16:15:23.601Z,4.60
2019-05-26T16:17:53.040Z,4.05
2019-05-26T16:20:23.568Z,4.62
2019-05-26T16:22:53.016Z,4.83
2019-05-26T16:25:22.477Z,5.30
2019-05-26T16:27:51.988Z,5.08
2019-05-26T16:30:21.521Z,5.00
2019-05-26T16:32:50.961Z,4.83
2019-05-26T16:35:20.440Z,4.37
2019-05-26T16:37:49.873Z,4.70
2019-05-26T16:40:19.337Z,4.90
2019-05-26T16:42:48.821Z,5.58
2019-05-26T16:45:19.315Z,5.15
2019-05-26T16:47:48.745Z,5.17
2019-05-26T16:50:18.352Z,4.85
2019-05-26T16:52:47.731Z,4.33
2019-05-26T16:55:17.187Z,5.15
2019-05-26T16:57:46.634Z,6.10
2019-05-26T17:00:16.333Z,5.45
2019-05-26T17:02:45.778Z,5.17
2019-05-26T17:05:15.312Z,5.33
2019-05-26T17:07:44.753Z,4.90
2019-05-26T17:10:14.460Z,5.05
2019-05-26T17:12:43.905Z,5.00
2019-05-26T17:15:13.719Z,5.03
2019-05-26T17:17:43.727Z,5.03
2019-05-26T17:20:13.413Z,5.70
2019-05-26T17:22:42.874Z,5.72
2019-05-26T17:25:14.145Z,5.03
2019-05-26T17:27:43.598Z,4.80
2019-05-26T17:30:13.300Z,5.12
2019-05-26T17:32:42.736Z,4.85
2019-05-26T17:35:12.442Z,5.03
2019-05-26T17:37:41.886Z,4.20
2019-05-26T17:40:11.429Z,4.42
2019-05-26T17:42:40.872Z,5.00
2019-05-26T17:45:10.478Z,4.75
2019-05-26T17:47:39.921Z,4.87
2019-05-26T17:50:09.935Z,4.60
2019-05-26T17:52:39.367Z,5.47
2019-05-26T17:55:10.717Z,5.25
2019-05-26T17:57:40.201Z,5.10
2019-05-26T18:00:12.245Z,4.95
2019-05-26T18:02:41.740Z,5.37
2019-05-26T18:05:12.514Z,4.85
2019-05-26T18:07:42.017Z,4.92
2019-05-26T18:10:11.635Z,4.90
2019-05-26T18:12:41.081Z,5.17
2019-05-26T18:15:11.193Z,4.50
2019-05-26T18:17:47.027Z,4.30
2019-05-26T18:20:13.644Z,4.70
2019-05-26T18:22:43.419Z,4.60
2019-05-26T18:25:13.162Z,4.90
2019-05-26T18:27:43.603Z,4.45
2019-05-26T18:30:13.481Z,4.22
2019-05-26T18:32:43.921Z,4.78
2019-05-26T18:35:13.431Z,4.35
2019-05-26T18:37:42.893Z,4.55
2019-05-26T18:40:12.780Z,5.62
2019-05-26T18:42:42.240Z,4.40
2019-05-26T18:45:13.105Z,5.12
2019-05-26T18:47:42.745Z,4.72
2019-05-26T18:50:12.500Z,4.72
2019-05-26T18:52:41.962Z,4.75
2019-05-26T18:55:11.641Z,4.65
2019-05-26T18:57:41.187Z,4.35
2019-05-26T19:00:11.324Z,4.35
2019-05-26T19:02:40.877Z,4.42
2019-05-26T19:05:10.446Z,4.50
2019-05-26T19:07:39.977Z,4.75
2019-05-26T19:10:10.351Z,4.40
2019-05-26T19:12:39.886Z,4.50
2019-05-26T19:15:10.233Z,4.75
2019-05-26T19:17:39.866Z,4.62
2019-05-26T19:20:16.541Z,4.15
2019-05-26T19:22:42.416Z,4.97
2019-05-26T19:25:12.192Z,5.53
2019-05-26T19:27:41.657Z,4.72
2019-05-26T19:30:12.443Z,4.50
2019-05-26T19:32:41.912Z,5.55
2019-05-26T19:35:12.624Z,5.03
2019-05-26T19:37:42.233Z,4.87
2019-05-26T19:40:12.322Z,4.80
2019-05-26T19:42:41.794Z,4.72
2019-05-26T19:45:11.447Z,5.37
2019-05-26T19:47:40.906Z,4.67
2019-05-26T19:50:10.692Z,4.80
2019-05-26T19:52:40.190Z,4.80
2019-05-26T19:55:10.263Z,4.80
2019-05-26T19:57:39.798Z,4.33
2019-05-26T20:00:12.690Z,4.22
2019-05-26T20:02:42.221Z,4.50
2019-05-26T20:05:12.108Z,4.70
2019-05-26T20:07:41.562Z,4.53
2019-05-26T20:10:11.510Z,4.55
2019-05-26T20:12:40.972Z,5.00
2019-05-26T20:15:12.657Z,4.50
2019-05-26T20:17:42.187Z,5.12
2019-05-26T20:20:12.847Z,5.08
2019-05-26T20:22:42.408Z,4.70
2019-05-26T20:25:12.179Z,5.22
2019-05-26T20:27:41.683Z,4.50
2019-05-26T20:30:11.639Z,5.00
2019-05-26T20:32:41.110Z,4.67
2019-05-26T20:35:11.897Z,5.45
2019-05-26T20:37:41.362Z,4.90
2019-05-26T20:40:11.454Z,5.03
2019-05-26T20:42:40.942Z,5.33
2019-05-26T20:45:10.673Z,5.42
2019-05-26T20:47:40.096Z,5.58
2019-05-26T20:50:10.191Z,5.30
2019-05-26T20:52:39.648Z,5.42
2019-05-26T20:55:09.708Z,5.00
2019-05-26T20:57:39.171Z,5.35
2019-05-26T21:00:11.354Z,4.80
2019-05-26T21:02:41.591Z,5.00
2019-05-26T21:05:12.342Z,5.35
2019-05-26T21:07:41.805Z,5.70
2019-05-26T21:10:11.643Z,5.42
2019-05-26T21:12:41.062Z,5.78
2019-05-26T21:15:12.913Z,5.12
2019-05-26T21:17:43.350Z,5.05
2019-05-26T21:20:13.429Z,5.58
2019-05-26T21:22:42.905Z,5.10
2019-05-26T21:25:12.785Z,5.22
2019-05-26T21:27:42.377Z,5.62
2019-05-26T21:30:12.097Z,5.03
2019-05-26T21:32:41.596Z,5.42
2019-05-26T21:35:11.081Z,4.45
2019-05-26T21:37:40.554Z,5.65
2019-05-26T21:40:10.441Z,5.50
2019-05-26T21:42:39.968Z,5.72
2019-05-26T21:45:10.955Z,5.35
2019-05-26T21:47:40.422Z,5.15
2019-05-26T21:50:10.513Z,5.40
2019-05-26T21:52:39.989Z,5.37
2019-05-26T21:55:09.569Z,6.33
2019-05-26T21:57:39.034Z,5.50
2019-05-26T22:00:12.063Z,5.17
2019-05-26T22:02:43.141Z,6.33
2019-05-26T22:05:12.834Z,5.50
2019-05-26T22:07:42.317Z,5.00
2019-05-26T22:10:11.984Z,5.65
2019-05-26T22:12:41.445Z,5.62
2019-05-26T22:15:11.545Z,5.03
2019-05-26T22:17:40.998Z,5.42
2019-05-26T22:20:11.564Z,5.00
2019-05-26T22:22:41.001Z,5.47
2019-05-26T22:25:10.537Z,5.35
2019-05-26T22:27:39.986Z,5.45
2019-05-26T22:30:10.284Z,5.17
2019-05-26T22:32:40.201Z,5.83
2019-05-26T22:35:09.819Z,5.58
2019-05-26T22:37:39.265Z,5.70
2019-05-26T22:40:09.065Z,5.25
2019-05-26T22:42:39.092Z,5.53
2019-05-26T22:45:09.398Z,5.15
2019-05-26T22:47:38.847Z,4.45
2019-05-26T22:50:09.148Z,5.78
2019-05-26T22:52:38.595Z,5.37
2019-05-26T22:55:08.370Z,5.33
2019-05-26T22:57:37.782Z,5.33
2019-05-26T23:00:08.965Z,5.05
2019-05-26T23:02:38.541Z,4.70
2019-05-26T23:05:08.392Z,5.67
2019-05-26T23:07:37.893Z,5.28
2019-05-26T23:10:09.197Z,5.40
2019-05-26T23:12:38.641Z,5.72
2019-05-26T23:15:09.445Z,5.80
2019-05-26T23:17:38.957Z,6.22
2019-05-26T23:20:08.987Z,6.05
2019-05-26T23:22:38.412Z,5.62
2019-05-26T23:25:08.331Z,5.90
2019-05-26T23:27:37.778Z,6.00
2019-05-26T23:30:08.282Z,5.90
2019-05-26T23:32:37.725Z,5.65
2019-05-26T23:35:08.528Z,5.30
2019-05-26T23:37:38.046Z,6.20
2019-05-26T23:40:07.643Z,6.30
2019-05-26T23:42:37.085Z,5.75
2019-05-26T23:45:07.490Z,5.40
2019-05-26T23:47:36.933Z,5.67
2019-05-26T23:50:07.148Z,6.00
2019-05-26T23:52:36.657Z,5.75
2019-05-26T23:55:07.166Z,5.87
2019-05-26T23:57:36.606Z,5.05
